Latest Weather Observations for Williamtown

IDN60901

Issued at 9:31 am EST Tuesday 25 September 2018 (issued every 10 minutes, with the page automatically refreshed every 10 minutes)

About weather observations | Map of Sydney area stations | Latest observations for Sydney area | Other Formats
Station Details ID: 061078 Name: WILLIAMTOWN RAAF Lat: -32.79 Lon: 151.84 Height: 7.5 m
Data from the previous 72 hours. | See also: Recent months at Williamtown
Date/Time
EST
Temp
°C
App
Temp
°C
Dew
Point
°C
Rel
Hum
%
Delta-T
°C
Wind Press
QNH
hPa
Press
MSL
hPa
Rain since
9am
mm
Dir  Spd
km/h
Gust
km/h
Spd
kts
Gust
kts
25/09:00am 15.1 14.0 10.1 72 2.6 SW 6 11 3 6 1028.2 1028.2 5.2
25/08:30am 13.8 12.6 10.2 79 1.9 SSE 7 11 4 6 1028.2 1028.2 5.2
25/08:00am 12.6 12.1 12.0 96 0.3 SW 6 9 3 5 1028.1 1028.1 5.2
25/07:30am 11.7 10.4 11.4 98 0.2 W 9 11 5 6 1028.1 1028.1 5.2
25/07:00am 10.9 9.8 10.6 98 0.2 WNW 7 9 4 5 1027.8 1027.8 5.2
25/06:30am 10.5 9.5 10.2 98 0.2 WNW 6 9 3 5 1027.6 1027.6 5.2
25/06:00am 9.7 9.6 9.4 98 0.1 CALM 0 0 0 0 1027.4 1027.4 5.2
25/05:30am 9.5 8.1 9.0 97 0.2 WNW 6 7 3 4 1027.1 1027.1 5.2
25/05:00am 9.7 8.2 9.2 97 0.2 NW 7 9 4 5 1027.1 1027.1 5.2
25/04:30am 9.1 7.1 8.6 97 0.2 WSW 9 11 5 6 1027.0 1027.0 5.2
25/04:14am 9.4 7.5 8.9 97 0.2 W 9 11 5 6 1026.8 1026.8 5.2
25/04:00am 9.5 7.6 8.9 96 0.3 WSW 9 9 5 5 1026.7 1026.7 5.2
25/03:56am 9.6 8.1 9.0 96 0.3 W 7 9 4 5 1026.8 1026.8 5.2
25/03:30am 10.3 8.9 9.7 96 0.3 WNW 7 9 4 5 1026.8 1026.8 5.2
25/03:00am 11.2 11.0 10.4 95 0.4 NW 2 6 1 3 1026.9 1026.9 5.2
25/02:30am 11.4 10.3 10.6 95 0.4 W 7 11 4 6 1027.2 1027.2 5.2
25/02:00am 11.4 9.5 10.6 95 0.4 WSW 11 13 6 7 1027.3 1027.3 5.2
25/01:30am 11.6 11.5 10.7 94 0.5 WSW 2 7 1 4 1027.4 1027.4 5.2
25/01:00am 11.7 10.2 10.6 93 0.6 WSW 9 13 5 7 1027.6 1027.6 5.2
25/12:30am 11.7 11.2 10.8 94 0.5 SW 4 7 2 4 1028.0 1028.0 5.2
25/12:00am 11.9 12.1 10.6 92 0.7 CALM 0 4 0 2 1028.1 1028.1 4.8
 
Date/Time
EST
Temp
°C
App
Temp
°C
Dew
Point
°C
Rel
Hum
%
Delta-T
°C
Wind Press
QNH
hPa
Press
MSL
hPa
Rain since
9am
mm
Dir  Spd
km/h
Gust
km/h
Spd
kts
Gust
kts
24/11:55pm 11.9 12.1 10.6 92 0.7 CALM 0 4 0 2 1028.0 1028.0 4.8
24/11:39pm 12.1 10.3 10.7 91 0.7 SE 11 15 6 8 1028.2 1028.2 4.4
24/11:30pm 12.4 10.5 10.5 88 1.0 ENE 11 15 6 8 1028.2 1028.2 4.2
24/11:00pm 12.5 11.0 10.4 87 1.1 ESE 9 15 5 8 1028.0 1028.0 4.0
24/10:30pm 12.1 10.6 10.7 91 0.7 ESE 9 15 5 8 1028.1 1028.1 4.0
24/10:25pm 12.1 9.9 10.8 92 0.7 SE 13 19 7 10 1028.2 1028.2 4.0
24/10:07pm 12.1 7.4 10.5 90 0.8 SSE 26 32 14 17 1028.1 1028.1 3.4
24/10:00pm 12.7 9.7 10.6 87 1.1 SSE 17 30 9 16 1028.2 1028.2 2.2
24/09:30pm 13.2 12.2 10.4 83 1.5 W 6 11 3 6 1028.1 1028.1 2.0
24/09:00pm 13.6 12.7 9.3 75 2.2 SE 4 7 2 4 1028.1 1028.1 2.0
24/08:30pm 14.1 11.4 9.1 72 2.5 ESE 13 19 7 10 1028.2 1028.2 2.0
24/08:00pm 13.4 10.9 9.8 79 1.8 E 13 20 7 11 1028.1 1028.1 2.0
24/07:30pm 14.1 12.2 8.9 71 2.6 ESE 9 13 5 7 1028.1 1028.1 1.8
24/07:00pm 13.7 10.0 9.6 76 2.1 ESE 19 26 10 14 1028.1 1028.1 1.8
24/06:30pm 13.7 12.6 9.9 78 2.0 ESE 6 22 3 12 1027.9 1027.9 1.8
24/06:00pm 13.6 11.8 9.6 77 2.0 ESE 9 13 5 7 1027.7 1027.7 1.8
24/05:30pm 13.2 8.7 10.2 82 1.6 SSE 24 33 13 18 1027.7 1027.7 1.8
24/05:00pm 14.4 10.5 9.6 73 2.5 SSE 20 30 11 16 1027.5 1027.5 1.8
24/04:30pm 15.4 12.5 9.5 68 3.0 SE 15 30 8 16 1027.3 1027.3 1.8
24/04:00pm 14.8 12.4 10.2 74 2.4 SE 13 17 7 9 1027.3 1027.3 1.6
24/03:30pm 14.0 9.7 10.8 81 1.7 SSE 24 30 13 16 1027.5 1027.5 1.6
24/03:00pm 16.1 11.9 8.1 59 4.0 SE 20 30 11 16 1027.2 1027.2 1.6
24/02:30pm 16.2 13.1 10.3 68 3.1 ESE 17 22 9 12 1027.3 1027.3 1.6
24/02:00pm 15.0 12.5 11.0 77 2.1 ESE 15 19 8 10 1027.7 1027.7 1.6
24/01:30pm 15.3 12.4 10.9 75 2.3 ESE 17 22 9 12 1027.9 1027.9 1.6
24/01:00pm 14.4 9.8 12.3 87 1.1 SSE 28 41 15 22 1028.2 1028.2 1.6
24/12:30pm 15.6 12.6 12.0 79 2.0 SE 19 26 10 14 1028.3 1028.3 1.6
24/12:00pm 15.3 12.3 11.9 80 1.8 ESE 19 24 10 13 1028.5 1028.5 1.6
24/11:30am 14.1 9.6 12.5 90 0.9 SE 28 35 15 19 1028.7 1028.7 1.6
24/11:12am 13.9 9.4 12.6 92 0.7 SSE 28 35 15 19 1029.0 1029.0 1.0
24/11:00am 14.3 9.5 11.8 85 1.3 SSE 28 37 15 20 1029.1 1029.1 0.8
24/10:30am 15.5 12.2 11.5 77 2.2 SE 20 28 11 15 1029.1 1029.1 0.8
24/10:00am 14.2 9.6 12.4 89 1.0 SE 28 35 15 19 1029.3 1029.3 0.8
24/09:30am 13.0 9.8 11.9 93 0.6 SSW 20 28 11 15 1029.4 1029.4 0.6
24/09:22am 13.1 9.8 11.5 90 0.8 SSW 20 30 11 16 1029.4 1029.4 0.6
24/09:00am 14.2 11.4 11.5 84 1.4 S 17 24 9 13 1029.1 1029.1 10.8
24/08:30am 14.0 8.7 11.2 83 1.5 SSE 30 37 16 20 1028.9 1028.9 10.8
24/08:00am 13.8 10.6 11.1 84 1.4 SE 19 28 10 15 1028.7 1028.7 10.8
24/07:30am 13.5 10.2 11.7 89 1.0 SSE 20 30 11 16 1028.5 1028.5 10.0
24/07:00am 12.8 8.7 11.5 92 0.7 S 24 33 13 18 1028.2 1028.2 10.0
24/06:30am 13.6 10.0 11.7 88 1.0 SE 22 33 12 18 1027.7 1027.7 9.0
24/06:00am 14.1 10.0 11.6 85 1.3 SSE 24 35 13 19 1027.3 1027.3 9.0
24/05:30am 14.0 9.2 11.7 86 1.2 S 28 41 15 22 1026.8 1026.8 9.0
24/05:00am 14.6 9.3 11.2 80 1.8 S 30 39 16 21 1026.5 1026.5 9.0
24/04:30am 14.1 10.5 11.8 86 1.2 S 22 30 12 16 1026.3 1026.3 9.0
24/04:00am 14.4 10.2 11.2 81 1.7 S 24 32 13 17 1026.1 1026.1 9.0
24/03:30am 14.8 10.4 10.4 75 2.3 S 24 35 13 19 1026.1 1026.1 9.0
24/03:00am 15.0 9.7 10.0 72 2.6 S 28 39 15 21 1026.0 1026.0 9.0
24/02:30am 14.6 9.8 10.4 76 2.2 S 26 33 14 18 1026.3 1026.3 9.0
24/02:00am 14.3 10.4 12.0 86 1.2 S 24 39 13 21 1026.5 1026.5 9.0
24/01:49am 14.1 9.1 12.1 88 1.1 S 30 44 16 24 1026.5 1026.5 9.0
24/01:32am 13.8 9.2 12.4 91 0.8 S 28 41 15 22 1026.6 1026.6 9.0
24/01:30am 13.9 9.8 12.8 93 0.6 S 26 41 14 22 1026.6 1026.6 9.0
24/01:19am 13.9 10.3 13.1 95 0.4 S 24 35 13 19 1026.8 1026.8 8.6
24/01:03am 14.2 9.5 13.2 94 0.6 SSE 30 39 16 21 1027.0 1027.0 3.2
24/01:00am 14.2 9.9 13.1 93 0.6 SSE 28 39 15 21 1027.0 1027.0 2.8
24/12:30am 14.9 11.4 13.3 90 0.9 SSE 24 32 13 17 1027.0 1027.0 2.2
24/12:00am 15.1 14.4 13.3 89 1.0 E 9 15 5 8 1026.7 1026.7 1.8
 
Date/Time
EST
Temp
°C
App
Temp
°C
Dew
Point
°C
Rel
Hum
%
Delta-T
°C
Wind Press
QNH
hPa
Press
MSL
hPa
Rain since
9am
mm
Dir  Spd
km/h
Gust
km/h
Spd
kts
Gust
kts
23/11:30pm 15.2 12.5 13.4 89 1.0 SSE 20 26 11 14 1026.9 1026.9 0.8
23/11:00pm 16.3 12.2 12.8 80 1.9 SSE 26 33 14 18 1026.6 1026.6 0.0
23/10:30pm 16.0 14.8 12.7 81 1.8 SE 11 15 6 8 1026.7 1026.7 0.0
23/10:00pm 16.2 13.5 12.9 81 1.8 SSE 19 26 10 14 1026.6 1026.6 0.0
23/09:30pm 16.2 12.2 12.9 81 1.8 SSE 26 35 14 19 1026.6 1026.6 0.0
23/09:00pm 17.4 13.9 12.1 71 2.9 SSE 22 32 12 17 1026.4 1026.4 0.0
23/08:30pm 17.4 14.3 12.3 72 2.8 SE 20 26 11 14 1026.2 1026.2 0.0
23/08:00pm 17.0 14.0 12.5 75 2.5 SSE 20 32 11 17 1025.9 1025.9 0.0
23/07:30pm 17.0 13.3 12.7 76 2.4 SSE 24 35 13 19 1025.0 1025.0 0.0
23/07:00pm 17.1 13.1 13.0 77 2.3 SE 26 32 14 17 1024.7 1024.7 0.0
23/06:30pm 17.5 13.9 13.2 76 2.4 SSE 24 30 13 16 1024.4 1024.4 0.0
23/06:00pm 17.6 13.3 13.3 76 2.4 SSE 28 33 15 18 1024.2 1024.2 0.0
23/05:30pm 18.0 15.6 13.9 77 2.3 SE 19 26 10 14 1023.7 1023.7 0.0
23/05:00pm 18.5 14.8 14.0 75 2.6 SE 26 32 14 17 1023.2 1023.2 0.0
23/04:30pm 18.7 15.0 14.0 74 2.7 SSE 26 32 14 17 1022.9 1022.9 0.0
23/04:00pm 19.1 14.7 14.1 73 2.9 SSE 30 37 16 20 1022.8 1022.8 0.0
23/03:30pm 19.2 14.4 14.0 72 3.0 S 32 43 17 23 1022.7 1022.7 0.0
23/03:00pm 19.5 14.5 13.9 70 3.2 S 33 44 18 24 1023.0 1023.0 0.0
23/02:30pm 19.1 14.0 13.7 71 3.1 S 33 44 18 24 1023.2 1023.2 0.0
23/02:00pm 20.1 14.7 13.8 67 3.6 S 35 46 19 25 1023.3 1023.3 0.0
23/01:30pm 20.5 15.7 13.9 66 3.8 S 32 43 17 23 1023.4 1023.4 0.0
23/01:00pm 20.2 15.0 13.4 65 3.9 S 33 41 18 22 1023.6 1023.6 0.0
23/12:30pm 21.0 16.3 13.2 61 4.5 S 30 39 16 21 1023.8 1023.8 0.0
23/12:00pm 19.1 14.3 12.8 67 3.5 S 30 37 16 20 1024.2 1024.2 0.0
23/11:30am 19.5 15.7 12.3 63 4.0 S 24 33 13 18 1024.5 1024.5 0.0
23/11:00am 19.1 16.0 12.1 64 3.9 SSW 20 30 11 16 1024.7 1024.7 0.0
23/10:30am 19.8 16.6 11.8 60 4.4 SW 20 30 11 16 1025.0 1025.0 0.0
23/10:00am 19.2 16.1 12.2 64 3.9 SSW 20 30 11 16 1025.3 1025.3 0.0
23/09:30am 17.9 15.3 11.9 68 3.3 SW 17 28 9 15 1025.3 1025.3 0.0
23/09:00am 17.2 14.7 12.3 73 2.7 SW 17 28 9 15 1025.2 1025.2 0.0
23/08:30am 16.5 14.4 12.3 76 2.3 WSW 15 24 8 13 1025.3 1025.3 0.0
23/08:00am 15.8 13.2 12.0 78 2.1 WSW 17 22 9 12 1025.1 1025.1 0.0
23/07:34am 15.3 13.4 11.7 79 1.9 W 13 19 7 10 1025.3 1025.3 0.0
23/07:30am 15.2 13.2 11.6 79 1.9 W 13 17 7 9 1025.2 1025.2 0.0
23/07:06am 14.2 11.8 10.2 77 2.1 W 13 17 7 9 1025.1 1025.1 0.0
23/07:00am 14.0 11.5 9.8 76 2.2 W 13 17 7 9 1025.0 1025.0 0.0
23/06:30am 12.4 9.4 9.1 80 1.7 W 15 17 8 9 1024.6 1024.6 0.0
23/06:14am 11.1 7.8 8.0 81 1.5 W 15 20 8 11 1024.3 1024.3 0.0
23/06:00am 9.5 6.4 7.4 87 1.0 WNW 13 15 7 8 1024.1 1024.1 0.0
23/05:55am 9.3 6.6 7.3 87 0.9 WNW 11 15 6 8 1024.1 1024.1 0.0
23/05:30am 9.5 7.5 7.3 86 1.0 WNW 7 7 4 4 1023.7 1023.7 0.0
23/05:00am 9.4 7.4 7.0 85 1.1 WSW 7 11 4 6 1023.3 1023.3 0.0
23/04:30am 10.5 7.1 7.7 83 1.3 NW 15 17 8 9 1022.8 1022.8 0.0
23/04:00am 10.5 8.0 8.3 86 1.1 NW 11 13 6 7 1022.7 1022.7 0.0
23/03:30am 11.2 8.8 8.8 85 1.2 NW 11 13 6 7 1022.6 1022.6 0.0
23/03:00am 11.3 9.3 8.5 83 1.4 WNW 9 9 5 5 1022.6 1022.6 0.0
23/02:30am 11.5 9.2 9.1 85 1.2 NW 11 13 6 7 1022.6 1022.6 0.0
23/02:00am 11.7 9.7 10.3 91 0.7 WNW 11 13 6 7 1022.8 1022.8 0.0
23/01:30am 12.2 10.8 10.8 91 0.7 WNW 9 11 5 6 1023.0 1023.0 0.0
23/01:00am 11.8 10.0 10.7 93 0.6 NW 11 13 6 7 1023.3 1023.3 0.0
23/12:30am 11.4 9.8 10.1 92 0.7 WSW 9 11 5 6 1023.4 1023.4 0.0
23/12:00am 12.1 10.9 10.3 89 0.9 WSW 7 11 4 6 1023.3 1023.3 0.0
 
Date/Time
EST
Temp
°C
App
Temp
°C
Dew
Point
°C
Rel
Hum
%
Delta-T
°C
Wind Press
QNH
hPa
Press
MSL
hPa
Rain since
9am
mm
Dir  Spd
km/h
Gust
km/h
Spd
kts
Gust
kts
22/11:30pm 12.9 13.2 10.8 87 1.1 CALM 0 2 0 1 1023.3 1023.3 0.0
22/11:00pm 12.3 12.3 9.7 84 1.3 CALM 0 4 0 2 1023.6 1023.6 0.0
22/10:30pm 14.8 13.8 10.4 75 2.3 N 6 9 3 5 1023.4 1023.4 0.0
22/10:00pm 15.7 14.2 10.5 71 2.7 NNE 9 13 5 7 1023.3 1023.3 0.0
22/09:30pm 15.8 13.5 10.6 71 2.8 NNE 13 15 7 8 1023.2 1023.2 0.0
22/09:00pm 16.1 14.7 10.8 71 2.8 N 9 11 5 6 1023.3 1023.3 0.0
22/08:30pm 16.5 14.3 10.8 69 3.0 N 13 15 7 8 1023.4 1023.4 0.0
22/08:00pm 17.3 15.2 11.1 67 3.3 NNE 13 20 7 11 1023.2 1023.2 0.0
22/07:30pm 17.3 15.5 12.2 72 2.8 NNE 13 19 7 10 1023.1 1023.1 0.0
22/07:00pm 17.7 16.1 12.8 73 2.7 NE 13 19 7 10 1022.8 1022.8 0.0
22/06:30pm 18.1 15.8 13.0 72 2.9 NE 17 26 9 14 1022.7 1022.7 0.0
22/06:00pm 18.4 16.4 12.6 69 3.2 NE 15 20 8 11 1022.6 1022.6 0.0
22/05:30pm 19.0 17.0 12.7 67 3.5 ENE 15 19 8 10 1022.5 1022.5 0.0
22/05:00pm 19.7 18.1 12.7 64 3.9 ENE 13 17 7 9 1022.5 1022.5 0.0
22/04:30pm 20.4 17.8 11.9 58 4.7 ENE 17 26 9 14 1022.4 1022.4 0.0
22/04:00pm 20.9 17.3 10.4 51 5.7 ENE 20 26 11 14 1022.2 1022.2 0.0
22/03:30pm 21.9 18.0 7.3 39 7.5 ENE 17 26 9 14 1022.5 1022.5 0.0
22/03:00pm 22.8 19.9 8.1 39 7.7 ENE 13 17 7 9 1022.7 1022.7 0.0
22/02:30pm 23.2 20.4 6.9 35 8.4 ENE 11 15 6 8 1022.9 1022.9 0.0
22/02:00pm 22.5 20.4 9.6 44 6.9 SE 11 15 6 8 1023.4 1023.4 0.0
22/01:30pm 21.8 19.5 10.6 49 6.1 SSE 13 19 7 10 1023.9 1023.9 0.0
22/01:00pm 22.1 20.5 10.3 47 6.4 ESE 9 15 5 8 1024.3 1024.3 0.0
22/12:30pm 21.7 19.4 7.5 40 7.3 N 9 17 5 9 1024.8 1024.8 0.0
22/12:00pm 21.6 19.2 8.5 43 6.9 N 11 15 6 8 1025.5 1025.5 0.0
22/11:30am 20.9 19.4 10.4 51 5.7 NNE 9 15 5 8 1026.1 1026.1 0.0
22/11:00am 19.7 17.3 9.9 53 5.2 NW 13 17 7 9 1026.7 1026.7 0.0
22/10:30am 18.6 16.3 10.4 59 4.4 NNW 13 17 7 9 1027.2 1027.2 0.0
22/10:00am 17.4 14.9 9.8 61 4.0 NW 13 19 7 10 1027.6 1027.6 0.0

Latest Capital City Observations: Canberra | Sydney | Melbourne | Brisbane | Adelaide | Perth | Hobart | Darwin

Other Formats:

Comma delimited format used in spreadsheet applications
http://www.bom.gov.au/fwo/IDN60901/IDN60901.94776.axf

JavaScript Object Notation format (JSON) in row-major order
http://www.bom.gov.au/fwo/IDN60901/IDN60901.94776.json